sensor_id;sensor_type;location;lat;lon;timestamp;P1;durP1;ratioP1;P2;durP2;ratioP2
4325;SDS011;58429;49.826;10.880;2023-04-03T00:00:20;7.4;;;4.9;;
4325;SDS011;58429;49.826;10.880;2023-04-03T00:01:20;7.4;;;4.9;;
4325;SDS011;58429;49.826;10.880;2023-04-03T00:02:20;7;;;5.2;;
4325;SDS011;58429;49.826;10.880;2023-04-03T00:03:20;7;;;5.2;;
4325;SDS011;58429;49.826;10.880;2023-04-03T00:04:20;7;;;5.2;;
4325;SDS011;58429;49.826;10.880;2023-04-03T00:05:20;6.6;;;5.7;;
4325;SDS011;58429;49.826;10.880;2023-04-03T00:06:20;6.6;;;5.7;;
4325;SDS011;58429;49.826;10.880;2023-04-03T00:07:20;6.6;;;5.7;;
4325;SDS011;58429;49.826;10.880;2023-04-03T00:08:20;6.9;;;5.5;;
4325;SDS011;58429;49.826;10.880;2023-04-03T00:09:20;6.9;;;5.5;;
4325;SDS011;58429;49.826;10.880;2023-04-03T00:10:20;6.9;;;5.5;;
4325;SDS011;58429;49.826;10.880;2023-04-03T00:11:20;7.5;;;5.6;;
4325;SDS011;58429;49.826;10.880;2023-04-03T00:12:20;7.5;;;5.6;;
4325;SDS011;58429;49.826;10.880;2023-04-03T00:13:20;7.5;;;5.6;;
4325;SDS011;58429;49.826;10.880;2023-04-03T00:14:20;8.4;;;5.5;;
4325;SDS011;58429;49.826;10.880;2023-04-03T00:15:20;8.4;;;5.5;;
4325;SDS011;58429;49.826;10.880;2023-04-03T00:16:20;8.4;;;5.5;;
4325;SDS011;58429;49.826;10.880;2023-04-03T00:17:20;8.2;;;5.7;;
4325;SDS011;58429;49.826;10.880;2023-04-03T00:18:21;8.2;;;5.7;;
4325;SDS011;58429;49.826;10.880;2023-04-03T00:19:20;8.2;;;5.7;;
4325;SDS011;58429;49.826;10.880;2023-04-03T00:20:20;7.7;;;6;;
4325;SDS011;58429;49.826;10.880;2023-04-03T00:21:20;7.7;;;6;;
4325;SDS011;58429;49.826;10.880;2023-04-03T00:22:20;7.7;;;6;;
4325;SDS011;58429;49.826;10.880;2023-04-03T00:23:20;7.6;;;5.9;;
4325;SDS011;58429;49.826;10.880;2023-04-03T00:24:20;7.6;;;5.9;;
4325;SDS011;58429;49.826;10.880;2023-04-03T00:25:20;7.6;;;5.9;;
4325;SDS011;58429;49.826;10.880;2023-04-03T00:26:20;7.5;;;5.3;;
4325;SDS011;58429;49.826;10.880;2023-04-03T00:27:20;7.5;;;5.3;;
4325;SDS011;58429;49.826;10.880;2023-04-03T00:28:20;7.5;;;5.3;;
4325;SDS011;58429;49.826;10.880;2023-04-03T00:29:20;7.4;;;5.7;;
4325;SDS011;58429;49.826;10.880;2023-04-03T00:30:21;7.4;;;5.7;;
4325;SDS011;58429;49.826;10.880;2023-04-03T00:31:20;7.4;;;5.7;;
4325;SDS011;58429;49.826;10.880;2023-04-03T00:32:20;7.9;;;6.3;;
4325;SDS011;58429;49.826;10.880;2023-04-03T00:33:20;7.9;;;6.3;;
4325;SDS011;58429;49.826;10.880;2023-04-03T00:34:20;7.9;;;6.3;;
4325;SDS011;58429;49.826;10.880;2023-04-03T00:35:21;7.8;;;5.8;;
4325;SDS011;58429;49.826;10.880;2023-04-03T00:36:20;7.8;;;5.8;;
4325;SDS011;58429;49.826;10.880;2023-04-03T00:37:20;7.8;;;5.8;;
4325;SDS011;58429;49.826;10.880;2023-04-03T00:38:20;8.4;;;6.3;;
4325;SDS011;58429;49.826;10.880;2023-04-03T00:39:20;8.4;;;6.3;;
4325;SDS011;58429;49.826;10.880;2023-04-03T00:40:21;8.4;;;6.3;;
4325;SDS011;58429;49.826;10.880;2023-04-03T00:41:20;8.5;;;6.3;;
4325;SDS011;58429;49.826;10.880;2023-04-03T00:42:20;8.5;;;6.3;;
4325;SDS011;58429;49.826;10.880;2023-04-03T00:43:21;8.5;;;6.3;;
4325;SDS011;58429;49.826;10.880;2023-04-03T00:44:21;8.7;;;6.2;;
4325;SDS011;58429;49.826;10.880;2023-04-03T00:45:39;8.7;;;6.2;;
4325;SDS011;58429;49.826;10.880;2023-04-03T00:46:20;8.7;;;6.2;;
4325;SDS011;58429;49.826;10.880;2023-04-03T00:47:20;7.4;;;6.4;;
4325;SDS011;58429;49.826;10.880;2023-04-03T00:48:21;7.4;;;6.4;;
4325;SDS011;58429;49.826;10.880;2023-04-03T00:49:20;7.4;;;6.4;;
4325;SDS011;58429;49.826;10.880;2023-04-03T00:50:20;8.5;;;6.5;;
4325;SDS011;58429;49.826;10.880;2023-04-03T00:51:21;8.5;;;6.5;;
4325;SDS011;58429;49.826;10.880;2023-04-03T00:52:21;8.5;;;6.5;;
4325;SDS011;58429;49.826;10.880;2023-04-03T00:53:21;8.6;;;6.6;;
4325;SDS011;58429;49.826;10.880;2023-04-03T00:54:20;8.6;;;6.6;;
4325;SDS011;58429;49.826;10.880;2023-04-03T00:55:20;8.6;;;6.6;;
4325;SDS011;58429;49.826;10.880;2023-04-03T00:56:21;8.6;;;6.6;;
4325;SDS011;58429;49.826;10.880;2023-04-03T00:57:20;8.3;;;6;;
4325;SDS011;58429;49.826;10.880;2023-04-03T00:58:20;8.3;;;6;;
4325;SDS011;58429;49.826;10.880;2023-04-03T00:59:21;8.3;;;6;;
4325;SDS011;58429;49.826;10.880;2023-04-03T01:00:20;8.1;;;5.8;;
4325;SDS011;58429;49.826;10.880;2023-04-03T01:01:21;8.1;;;5.8;;
4325;SDS011;58429;49.826;10.880;2023-04-03T01:02:20;8.1;;;5.8;;
4325;SDS011;58429;49.826;10.880;2023-04-03T01:03:20;9;;;6.5;;
4325;SDS011;58429;49.826;10.880;2023-04-03T01:04:26;9;;;6.5;;
4325;SDS011;58429;49.826;10.880;2023-04-03T01:05:20;9;;;6.5;;
4325;SDS011;58429;49.826;10.880;2023-04-03T01:06:21;7.5;;;6.4;;
4325;SDS011;58429;49.826;10.880;2023-04-03T01:07:21;7.5;;;6.4;;
4325;SDS011;58429;49.826;10.880;2023-04-03T01:08:20;7.5;;;6.4;;
4325;SDS011;58429;49.826;10.880;2023-04-03T01:09:20;8.4;;;6.1;;
4325;SDS011;58429;49.826;10.880;2023-04-03T01:10:20;8.4;;;6.1;;
4325;SDS011;58429;49.826;10.880;2023-04-03T01:11:20;8.4;;;6.1;;
4325;SDS011;58429;49.826;10.880;2023-04-03T01:12:22;8.3;;;6;;
4325;SDS011;58429;49.826;10.880;2023-04-03T01:13:22;8.3;;;6;;
4325;SDS011;58429;49.826;10.880;2023-04-03T01:16:20;7.6;;;6.3;;
4325;SDS011;58429;49.826;10.880;2023-04-03T01:17:24;7.6;;;6.3;;
4325;SDS011;58429;49.826;10.880;2023-04-03T01:18:21;9;;;6;;
4325;SDS011;58429;49.826;10.880;2023-04-03T01:19:20;9;;;6;;
4325;SDS011;58429;49.826;10.880;2023-04-03T01:20:25;9;;;6;;
4325;SDS011;58429;49.826;10.880;2023-04-03T01:21:28;8.1;;;6.3;;
4325;SDS011;58429;49.826;10.880;2023-04-03T01:22:21;8.1;;;6.3;;
4325;SDS011;58429;49.826;10.880;2023-04-03T01:23:25;8.1;;;6.3;;
4325;SDS011;58429;49.826;10.880;2023-04-03T01:24:24;7.7;;;6.5;;
4325;SDS011;58429;49.826;10.880;2023-04-03T01:25:20;7.7;;;6.5;;
4325;SDS011;58429;49.826;10.880;2023-04-03T01:26:20;7.7;;;6.5;;
4325;SDS011;58429;49.826;10.880;2023-04-03T01:27:20;9;;;6.5;;
4325;SDS011;58429;49.826;10.880;2023-04-03T01:28:24;9;;;6.5;;
4325;SDS011;58429;49.826;10.880;2023-04-03T01:29:20;9;;;6.5;;
4325;SDS011;58429;49.826;10.880;2023-04-03T01:30:21;8.7;;;6.7;;
4325;SDS011;58429;49.826;10.880;2023-04-03T01:31:22;8.7;;;6.7;;
4325;SDS011;58429;49.826;10.880;2023-04-03T01:32:20;8.7;;;6.7;;
4325;SDS011;58429;49.826;10.880;2023-04-03T01:33:20;9.7;;;7.1;;
4325;SDS011;58429;49.826;10.880;2023-04-03T01:34:20;9.7;;;7.1;;
4325;SDS011;58429;49.826;10.880;2023-04-03T01:35:20;9.7;;;7.1;;
4325;SDS011;58429;49.826;10.880;2023-04-03T01:36:21;8.7;;;5.9;;
4325;SDS011;58429;49.826;10.880;2023-04-03T01:37:20;8.7;;;5.9;;
4325;SDS011;58429;49.826;10.880;2023-04-03T01:38:20;8.7;;;5.9;;
4325;SDS011;58429;49.826;10.880;2023-04-03T01:39:21;7.2;;;5.7;;
4325;SDS011;58429;49.826;10.880;2023-04-03T01:40:20;7.2;;;5.7;;
4325;SDS011;58429;49.826;10.880;2023-04-03T01:41:20;7.2;;;5.7;;
4325;SDS011;58429;49.826;10.880;2023-04-03T01:42:20;7.9;;;6.1;;
4325;SDS011;58429;49.826;10.880;2023-04-03T01:43:20;7.9;;;6.1;;
4325;SDS011;58429;49.826;10.880;2023-04-03T01:44:20;7.9;;;6.1;;
4325;SDS011;58429;49.826;10.880;2023-04-03T01:45:20;8.9;;;6.1;;
4325;SDS011;58429;49.826;10.880;2023-04-03T01:46:21;8.9;;;6.1;;
4325;SDS011;58429;49.826;10.880;2023-04-03T01:47:20;8.9;;;6.1;;
4325;SDS011;58429;49.826;10.880;2023-04-03T01:48:21;8.1;;;6.4;;
4325;SDS011;58429;49.826;10.880;2023-04-03T01:49:20;8.1;;;6.4;;
4325;SDS011;58429;49.826;10.880;2023-04-03T01:50:20;8.1;;;6.4;;
4325;SDS011;58429;49.826;10.880;2023-04-03T01:51:20;7.7;;;6;;
4325;SDS011;58429;49.826;10.880;2023-04-03T01:52:20;7.7;;;6;;
4325;SDS011;58429;49.826;10.880;2023-04-03T01:53:20;7.7;;;6;;
4325;SDS011;58429;49.826;10.880;2023-04-03T01:54:20;7.9;;;6;;
4325;SDS011;58429;49.826;10.880;2023-04-03T01:55:20;7.9;;;6;;
4325;SDS011;58429;49.826;10.880;2023-04-03T01:56:21;7.9;;;6;;
4325;SDS011;58429;49.826;10.880;2023-04-03T01:57:20;8.5;;;6.4;;
4325;SDS011;58429;49.826;10.880;2023-04-03T01:58:20;8.5;;;6.4;;
4325;SDS011;58429;49.826;10.880;2023-04-03T01:59:20;8.5;;;6.4;;
4325;SDS011;58429;49.826;10.880;2023-04-03T02:00:20;7.2;;;6.1;;
4325;SDS011;58429;49.826;10.880;2023-04-03T02:01:20;7.2;;;6.1;;
4325;SDS011;58429;49.826;10.880;2023-04-03T02:02:20;7.2;;;6.1;;
4325;SDS011;58429;49.826;10.880;2023-04-03T02:03:20;7.8;;;6.7;;
4325;SDS011;58429;49.826;10.880;2023-04-03T02:04:20;7.8;;;6.7;;
4325;SDS011;58429;49.826;10.880;2023-04-03T02:05:20;7.8;;;6.7;;
4325;SDS011;58429;49.826;10.880;2023-04-03T02:06:20;8;;;6.4;;
4325;SDS011;58429;49.826;10.880;2023-04-03T02:07:20;8;;;6.4;;
4325;SDS011;58429;49.826;10.880;2023-04-03T02:08:20;8;;;6.4;;
4325;SDS011;58429;49.826;10.880;2023-04-03T02:09:20;8.1;;;6.3;;
4325;SDS011;58429;49.826;10.880;2023-04-03T02:10:20;8.1;;;6.3;;
4325;SDS011;58429;49.826;10.880;2023-04-03T02:11:20;8.1;;;6.3;;
4325;SDS011;58429;49.826;10.880;2023-04-03T02:12:20;7.9;;;6.4;;
4325;SDS011;58429;49.826;10.880;2023-04-03T02:13:20;7.9;;;6.4;;
4325;SDS011;58429;49.826;10.880;2023-04-03T02:14:20;7.9;;;6.4;;
4325;SDS011;58429;49.826;10.880;2023-04-03T02:15:21;8.2;;;6.5;;
4325;SDS011;58429;49.826;10.880;2023-04-03T02:16:20;8.2;;;6.5;;
4325;SDS011;58429;49.826;10.880;2023-04-03T02:17:20;8.2;;;6.5;;
4325;SDS011;58429;49.826;10.880;2023-04-03T02:18:20;9.1;;;6.7;;
4325;SDS011;58429;49.826;10.880;2023-04-03T02:19:20;9.1;;;6.7;;
4325;SDS011;58429;49.826;10.880;2023-04-03T02:20:20;9.1;;;6.7;;
4325;SDS011;58429;49.826;10.880;2023-04-03T02:21:20;7.4;;;6.2;;
4325;SDS011;58429;49.826;10.880;2023-04-03T02:22:20;7.4;;;6.2;;
4325;SDS011;58429;49.826;10.880;2023-04-03T02:23:20;7.4;;;6.2;;
4325;SDS011;58429;49.826;10.880;2023-04-03T02:24:20;7.7;;;6.3;;
4325;SDS011;58429;49.826;10.880;2023-04-03T02:25:20;7.7;;;6.3;;
4325;SDS011;58429;49.826;10.880;2023-04-03T02:26:20;7.7;;;6.3;;
4325;SDS011;58429;49.826;10.880;2023-04-03T02:27:20;8.9;;;6.7;;
4325;SDS011;58429;49.826;10.880;2023-04-03T02:28:20;8.9;;;6.7;;
4325;SDS011;58429;49.826;10.880;2023-04-03T02:29:20;8.9;;;6.7;;
4325;SDS011;58429;49.826;10.880;2023-04-03T02:30:20;9.3;;;5.8;;
4325;SDS011;58429;49.826;10.880;2023-04-03T02:31:20;9.3;;;5.8;;
4325;SDS011;58429;49.826;10.880;2023-04-03T02:32:20;9.3;;;5.8;;
4325;SDS011;58429;49.826;10.880;2023-04-03T02:33:20;8.4;;;6.5;;
4325;SDS011;58429;49.826;10.880;2023-04-03T02:34:20;8.4;;;6.5;;
4325;SDS011;58429;49.826;10.880;2023-04-03T02:35:20;8.4;;;6.5;;
4325;SDS011;58429;49.826;10.880;2023-04-03T02:36:20;8;;;5.7;;
4325;SDS011;58429;49.826;10.880;2023-04-03T02:37:20;8;;;5.7;;
4325;SDS011;58429;49.826;10.880;2023-04-03T02:38:20;8;;;5.7;;
4325;SDS011;58429;49.826;10.880;2023-04-03T02:39:20;7.4;;;6.2;;
4325;SDS011;58429;49.826;10.880;2023-04-03T02:40:20;7.4;;;6.2;;
4325;SDS011;58429;49.826;10.880;2023-04-03T02:41:20;7.4;;;6.2;;
4325;SDS011;58429;49.826;10.880;2023-04-03T02:42:20;9.8;;;6.8;;
4325;SDS011;58429;49.826;10.880;2023-04-03T02:43:20;9.8;;;6.8;;
4325;SDS011;58429;49.826;10.880;2023-04-03T02:44:20;9.8;;;6.8;;
4325;SDS011;58429;49.826;10.880;2023-04-03T02:45:20;9.8;;;6.8;;
4325;SDS011;58429;49.826;10.880;2023-04-03T02:46:20;9.5;;;6.8;;
4325;SDS011;58429;49.826;10.880;2023-04-03T02:47:21;9.5;;;6.8;;
4325;SDS011;58429;49.826;10.880;2023-04-03T02:48:20;9.5;;;6.8;;
4325;SDS011;58429;49.826;10.880;2023-04-03T02:49:20;8;;;6.7;;
4325;SDS011;58429;49.826;10.880;2023-04-03T02:50:20;8;;;6.7;;
4325;SDS011;58429;49.826;10.880;2023-04-03T02:51:21;8;;;6.7;;
4325;SDS011;58429;49.826;10.880;2023-04-03T02:52:21;7.3;;;5.5;;
4325;SDS011;58429;49.826;10.880;2023-04-03T02:53:20;7.3;;;5.5;;
4325;SDS011;58429;49.826;10.880;2023-04-03T02:54:20;7.3;;;5.5;;
4325;SDS011;58429;49.826;10.880;2023-04-03T02:55:20;7.6;;;6.4;;
4325;SDS011;58429;49.826;10.880;2023-04-03T02:56:20;7.6;;;6.4;;
4325;SDS011;58429;49.826;10.880;2023-04-03T02:57:20;7.6;;;6.4;;
4325;SDS011;58429;49.826;10.880;2023-04-03T02:58:20;8.8;;;6.6;;
4325;SDS011;58429;49.826;10.880;2023-04-03T02:59:20;8.8;;;6.6;;
4325;SDS011;58429;49.826;10.880;2023-04-03T03:00:20;8.8;;;6.6;;
4325;SDS011;58429;49.826;10.880;2023-04-03T03:01:20;7.4;;;6.5;;
4325;SDS011;58429;49.826;10.880;2023-04-03T03:02:20;7.4;;;6.5;;
4325;SDS011;58429;49.826;10.880;2023-04-03T03:03:20;7.4;;;6.5;;
4325;SDS011;58429;49.826;10.880;2023-04-03T03:04:20;9.3;;;6.2;;
4325;SDS011;58429;49.826;10.880;2023-04-03T03:05:20;9.3;;;6.2;;
4325;SDS011;58429;49.826;10.880;2023-04-03T03:06:20;9.3;;;6.2;;
4325;SDS011;58429;49.826;10.880;2023-04-03T03:07:20;9.6;;;6.6;;
4325;SDS011;58429;49.826;10.880;2023-04-03T03:08:20;9.6;;;6.6;;
4325;SDS011;58429;49.826;10.880;2023-04-03T03:09:20;9.6;;;6.6;;
4325;SDS011;58429;49.826;10.880;2023-04-03T03:10:20;7.9;;;6.6;;
4325;SDS011;58429;49.826;10.880;2023-04-03T03:11:20;7.9;;;6.6;;
4325;SDS011;58429;49.826;10.880;2023-04-03T03:12:20;7.9;;;6.6;;
4325;SDS011;58429;49.826;10.880;2023-04-03T03:13:20;8.9;;;6.6;;
4325;SDS011;58429;49.826;10.880;2023-04-03T03:14:20;8.9;;;6.6;;
4325;SDS011;58429;49.826;10.880;2023-04-03T03:15:21;8.9;;;6.6;;
4325;SDS011;58429;49.826;10.880;2023-04-03T03:16:20;10;;;6.8;;
4325;SDS011;58429;49.826;10.880;2023-04-03T03:17:20;10;;;6.8;;
4325;SDS011;58429;49.826;10.880;2023-04-03T03:18:20;10;;;6.8;;
4325;SDS011;58429;49.826;10.880;2023-04-03T03:19:20;9.2;;;6.1;;
4325;SDS011;58429;49.826;10.880;2023-04-03T03:20:20;9.2;;;6.1;;
4325;SDS011;58429;49.826;10.880;2023-04-03T03:21:20;9.2;;;6.1;;
4325;SDS011;58429;49.826;10.880;2023-04-03T03:22:20;8.9;;;6.2;;
4325;SDS011;58429;49.826;10.880;2023-04-03T03:23:21;8.9;;;6.2;;
4325;SDS011;58429;49.826;10.880;2023-04-03T03:24:20;8.9;;;6.2;;
4325;SDS011;58429;49.826;10.880;2023-04-03T03:25:20;7.7;;;6.2;;
4325;SDS011;58429;49.826;10.880;2023-04-03T03:26:20;7.7;;;6.2;;
4325;SDS011;58429;49.826;10.880;2023-04-03T03:27:20;7.7;;;6.2;;
4325;SDS011;58429;49.826;10.880;2023-04-03T03:28:20;9.9;;;6.7;;
4325;SDS011;58429;49.826;10.880;2023-04-03T03:29:20;9.9;;;6.7;;
4325;SDS011;58429;49.826;10.880;2023-04-03T03:30:20;9.9;;;6.7;;
4325;SDS011;58429;49.826;10.880;2023-04-03T03:31:20;8.7;;;6.4;;
4325;SDS011;58429;49.826;10.880;2023-04-03T03:32:20;8.7;;;6.4;;
4325;SDS011;58429;49.826;10.880;2023-04-03T03:33:20;8.7;;;6.4;;
4325;SDS011;58429;49.826;10.880;2023-04-03T03:34:20;10.2;;;6;;
4325;SDS011;58429;49.826;10.880;2023-04-03T03:35:20;10.2;;;6;;
4325;SDS011;58429;49.826;10.880;2023-04-03T03:36:20;10.2;;;6;;
4325;SDS011;58429;49.826;10.880;2023-04-03T03:37:20;9.3;;;6.5;;
4325;SDS011;58429;49.826;10.880;2023-04-03T03:38:20;9.3;;;6.5;;
4325;SDS011;58429;49.826;10.880;2023-04-03T03:39:20;9.3;;;6.5;;
4325;SDS011;58429;49.826;10.880;2023-04-03T03:40:21;9.8;;;6.6;;
4325;SDS011;58429;49.826;10.880;2023-04-03T03:41:20;9.8;;;6.6;;
4325;SDS011;58429;49.826;10.880;2023-04-03T03:42:20;9.8;;;6.6;;
4325;SDS011;58429;49.826;10.880;2023-04-03T03:43:20;9.9;;;6.9;;
4325;SDS011;58429;49.826;10.880;2023-04-03T03:44:21;9.9;;;6.9;;
4325;SDS011;58429;49.826;10.880;2023-04-03T03:45:20;9.9;;;6.9;;
4325;SDS011;58429;49.826;10.880;2023-04-03T03:46:20;8.5;;;6.1;;
4325;SDS011;58429;49.826;10.880;2023-04-03T03:47:20;8.5;;;6.1;;
4325;SDS011;58429;49.826;10.880;2023-04-03T03:48:21;8.5;;;6.1;;
4325;SDS011;58429;49.826;10.880;2023-04-03T03:49:20;8.7;;;7.2;;
4325;SDS011;58429;49.826;10.880;2023-04-03T03:50:20;8.7;;;7.2;;
4325;SDS011;58429;49.826;10.880;2023-04-03T03:51:20;8.7;;;7.2;;
4325;SDS011;58429;49.826;10.880;2023-04-03T03:52:20;8.6;;;6.4;;
4325;SDS011;58429;49.826;10.880;2023-04-03T03:53:20;8.6;;;6.4;;
4325;SDS011;58429;49.826;10.880;2023-04-03T03:54:20;8.6;;;6.4;;
4325;SDS011;58429;49.826;10.880;2023-04-03T03:55:20;10.3;;;7.1;;
4325;SDS011;58429;49.826;10.880;2023-04-03T03:56:20;10.3;;;7.1;;
4325;SDS011;58429;49.826;10.880;2023-04-03T03:57:20;10.3;;;7.1;;
4325;SDS011;58429;49.826;10.880;2023-04-03T03:58:20;9;;;7.1;;
4325;SDS011;58429;49.826;10.880;2023-04-03T03:59:20;9;;;7.1;;
4325;SDS011;58429;49.826;10.880;2023-04-03T04:00:20;9;;;7.1;;
4325;SDS011;58429;49.826;10.880;2023-04-03T04:01:20;8.7;;;7;;
4325;SDS011;58429;49.826;10.880;2023-04-03T04:02:21;8.7;;;7;;
4325;SDS011;58429;49.826;10.880;2023-04-03T04:03:20;8.7;;;7;;
4325;SDS011;58429;49.826;10.880;2023-04-03T04:04:20;9.3;;;6.6;;
4325;SDS011;58429;49.826;10.880;2023-04-03T04:05:20;9.3;;;6.6;;
4325;SDS011;58429;49.826;10.880;2023-04-03T04:06:20;9.3;;;6.6;;
4325;SDS011;58429;49.826;10.880;2023-04-03T04:07:20;9.5;;;6.9;;
4325;SDS011;58429;49.826;10.880;2023-04-03T04:08:20;9.5;;;6.9;;
4325;SDS011;58429;49.826;10.880;2023-04-03T04:09:20;9.5;;;6.9;;
4325;SDS011;58429;49.826;10.880;2023-04-03T04:10:20;9.7;;;7.4;;
4325;SDS011;58429;49.826;10.880;2023-04-03T04:11:20;9.7;;;7.4;;
4325;SDS011;58429;49.826;10.880;2023-04-03T04:12:21;9.7;;;7.4;;
4325;SDS011;58429;49.826;10.880;2023-04-03T04:13:20;8.4;;;6.7;;
4325;SDS011;58429;49.826;10.880;2023-04-03T04:14:20;8.4;;;6.7;;
4325;SDS011;58429;49.826;10.880;2023-04-03T04:15:20;8.4;;;6.7;;
4325;SDS011;58429;49.826;10.880;2023-04-03T04:16:20;10.5;;;8;;
4325;SDS011;58429;49.826;10.880;2023-04-03T04:17:20;10.5;;;8;;
4325;SDS011;58429;49.826;10.880;2023-04-03T04:18:20;10.5;;;8;;
4325;SDS011;58429;49.826;10.880;2023-04-03T04:19:20;8.1;;;6.9;;
4325;SDS011;58429;49.826;10.880;2023-04-03T04:20:20;8.1;;;6.9;;
4325;SDS011;58429;49.826;10.880;2023-04-03T04:21:20;8.1;;;6.9;;
4325;SDS011;58429;49.826;10.880;2023-04-03T04:22:20;9.4;;;7.4;;
4325;SDS011;58429;49.826;10.880;2023-04-03T04:23:20;9.4;;;7.4;;
4325;SDS011;58429;49.826;10.880;2023-04-03T04:24:20;9.4;;;7.4;;
4325;SDS011;58429;49.826;10.880;2023-04-03T04:25:20;10.6;;;8.4;;
4325;SDS011;58429;49.826;10.880;2023-04-03T04:26:20;10.6;;;8.4;;
4325;SDS011;58429;49.826;10.880;2023-04-03T04:27:20;10.6;;;8.4;;
4325;SDS011;58429;49.826;10.880;2023-04-03T04:28:21;9.5;;;7.3;;
4325;SDS011;58429;49.826;10.880;2023-04-03T04:29:20;9.5;;;7.3;;
4325;SDS011;58429;49.826;10.880;2023-04-03T04:30:21;9.5;;;7.3;;
4325;SDS011;58429;49.826;10.880;2023-04-03T04:31:21;9.5;;;7.1;;
4325;SDS011;58429;49.826;10.880;2023-04-03T04:32:21;9.5;;;7.1;;
4325;SDS011;58429;49.826;10.880;2023-04-03T04:33:20;9.5;;;7.1;;
4325;SDS011;58429;49.826;10.880;2023-04-03T04:34:20;9.5;;;7.1;;
4325;SDS011;58429;49.826;10.880;2023-04-03T04:35:20;8.5;;;6.6;;
4325;SDS011;58429;49.826;10.880;2023-04-03T04:36:20;8.5;;;6.6;;
4325;SDS011;58429;49.826;10.880;2023-04-03T04:37:20;8.5;;;6.6;;
4325;SDS011;58429;49.826;10.880;2023-04-03T04:38:20;9.7;;;7.5;;
4325;SDS011;58429;49.826;10.880;2023-04-03T04:39:20;9.7;;;7.5;;
4325;SDS011;58429;49.826;10.880;2023-04-03T04:40:20;9.7;;;7.5;;
4325;SDS011;58429;49.826;10.880;2023-04-03T04:41:21;9.6;;;7.8;;
4325;SDS011;58429;49.826;10.880;2023-04-03T04:42:20;9.6;;;7.8;;
4325;SDS011;58429;49.826;10.880;2023-04-03T04:43:20;9.6;;;7.8;;
4325;SDS011;58429;49.826;10.880;2023-04-03T04:44:20;9.8;;;7.2;;
4325;SDS011;58429;49.826;10.880;2023-04-03T04:45:20;9.8;;;7.2;;
4325;SDS011;58429;49.826;10.880;2023-04-03T04:46:20;9.8;;;7.2;;
4325;SDS011;58429;49.826;10.880;2023-04-03T04:47:20;8.7;;;7.5;;
4325;SDS011;58429;49.826;10.880;2023-04-03T04:48:20;8.7;;;7.5;;
4325;SDS011;58429;49.826;10.880;2023-04-03T04:49:20;8.7;;;7.5;;
4325;SDS011;58429;49.826;10.880;2023-04-03T04:50:20;9;;;7.6;;
4325;SDS011;58429;49.826;10.880;2023-04-03T04:51:21;9;;;7.6;;
4325;SDS011;58429;49.826;10.880;2023-04-03T04:52:20;9;;;7.6;;
4325;SDS011;58429;49.826;10.880;2023-04-03T04:53:20;8.8;;;7.3;;
4325;SDS011;58429;49.826;10.880;2023-04-03T04:54:20;8.8;;;7.3;;
4325;SDS011;58429;49.826;10.880;2023-04-03T04:55:20;8.8;;;7.3;;
4325;SDS011;58429;49.826;10.880;2023-04-03T04:56:20;10.6;;;7.9;;
4325;SDS011;58429;49.826;10.880;2023-04-03T04:57:20;10.6;;;7.9;;
4325;SDS011;58429;49.826;10.880;2023-04-03T04:58:20;10.6;;;7.9;;
4325;SDS011;58429;49.826;10.880;2023-04-03T04:59:20;9.9;;;7.6;;
4325;SDS011;58429;49.826;10.880;2023-04-03T05:00:21;9.9;;;7.6;;
4325;SDS011;58429;49.826;10.880;2023-04-03T05:01:20;9.9;;;7.6;;
4325;SDS011;58429;49.826;10.880;2023-04-03T05:02:20;8.1;;;6.9;;
4325;SDS011;58429;49.826;10.880;2023-04-03T05:03:20;8.1;;;6.9;;
4325;SDS011;58429;49.826;10.880;2023-04-03T05:04:20;8.1;;;6.9;;
4325;SDS011;58429;49.826;10.880;2023-04-03T05:05:20;11.9;;;7.9;;
4325;SDS011;58429;49.826;10.880;2023-04-03T05:06:20;11.9;;;7.9;;
4325;SDS011;58429;49.826;10.880;2023-04-03T05:07:20;11.9;;;7.9;;
4325;SDS011;58429;49.826;10.880;2023-04-03T05:08:21;9.3;;;7.3;;
4325;SDS011;58429;49.826;10.880;2023-04-03T05:09:21;9.3;;;7.3;;
4325;SDS011;58429;49.826;10.880;2023-04-03T05:10:20;9.3;;;7.3;;
4325;SDS011;58429;49.826;10.880;2023-04-03T05:11:20;10.4;;;7.4;;
4325;SDS011;58429;49.826;10.880;2023-04-03T05:12:21;10.4;;;7.4;;
4325;SDS011;58429;49.826;10.880;2023-04-03T05:13:20;10.4;;;7.4;;
4325;SDS011;58429;49.826;10.880;2023-04-03T05:14:20;9.4;;;6.9;;
4325;SDS011;58429;49.826;10.880;2023-04-03T05:15:20;9.4;;;6.9;;
4325;SDS011;58429;49.826;10.880;2023-04-03T05:16:21;9.4;;;6.9;;
4325;SDS011;58429;49.826;10.880;2023-04-03T05:17:20;10.5;;;7.6;;
4325;SDS011;58429;49.826;10.880;2023-04-03T05:18:20;10.5;;;7.6;;
4325;SDS011;58429;49.826;10.880;2023-04-03T05:19:21;10.5;;;7.6;;
4325;SDS011;58429;49.826;10.880;2023-04-03T05:20:20;10.4;;;7.7;;
4325;SDS011;58429;49.826;10.880;2023-04-03T05:21:20;10.4;;;7.7;;
4325;SDS011;58429;49.826;10.880;2023-04-03T05:22:20;10.4;;;7.7;;
4325;SDS011;58429;49.826;10.880;2023-04-03T05:23:20;10.6;;;6.6;;
4325;SDS011;58429;49.826;10.880;2023-04-03T05:24:20;10.6;;;6.6;;
4325;SDS011;58429;49.826;10.880;2023-04-03T05:25:20;10.6;;;6.6;;
4325;SDS011;58429;49.826;10.880;2023-04-03T05:26:20;10;;;7.4;;
4325;SDS011;58429;49.826;10.880;2023-04-03T05:27:20;10;;;7.4;;
4325;SDS011;58429;49.826;10.880;2023-04-03T05:28:20;10;;;7.4;;
4325;SDS011;58429;49.826;10.880;2023-04-03T05:29:21;8.6;;;7;;
4325;SDS011;58429;49.826;10.880;2023-04-03T05:30:20;8.6;;;7;;
4325;SDS011;58429;49.826;10.880;2023-04-03T05:31:20;8.6;;;7;;
4325;SDS011;58429;49.826;10.880;2023-04-03T05:32:21;9.6;;;7.4;;
4325;SDS011;58429;49.826;10.880;2023-04-03T05:33:20;9.6;;;7.4;;
4325;SDS011;58429;49.826;10.880;2023-04-03T05:34:20;9.6;;;7.4;;
4325;SDS011;58429;49.826;10.880;2023-04-03T05:35:20;9.6;;;7.2;;
4325;SDS011;58429;49.826;10.880;2023-04-03T05:36:21;9.6;;;7.2;;
4325;SDS011;58429;49.826;10.880;2023-04-03T05:37:20;9.6;;;7.2;;
4325;SDS011;58429;49.826;10.880;2023-04-03T05:38:20;11;;;6.9;;
4325;SDS011;58429;49.826;10.880;2023-04-03T05:39:20;11;;;6.9;;
4325;SDS011;58429;49.826;10.880;2023-04-03T05:40:20;11;;;6.9;;
4325;SDS011;58429;49.826;10.880;2023-04-03T05:41:20;8.6;;;7.4;;
4325;SDS011;58429;49.826;10.880;2023-04-03T05:42:20;8.6;;;7.4;;
4325;SDS011;58429;49.826;10.880;2023-04-03T05:43:20;8.6;;;7.4;;
4325;SDS011;58429;49.826;10.880;2023-04-03T05:44:20;9.3;;;7.2;;
4325;SDS011;58429;49.826;10.880;2023-04-03T05:45:20;9.3;;;7.2;;
4325;SDS011;58429;49.826;10.880;2023-04-03T05:46:20;9.3;;;7.2;;
4325;SDS011;58429;49.826;10.880;2023-04-03T05:47:21;9.1;;;7.1;;
4325;SDS011;58429;49.826;10.880;2023-04-03T05:48:21;9.1;;;7.1;;
4325;SDS011;58429;49.826;10.880;2023-04-03T05:49:20;9.1;;;7.1;;
4325;SDS011;58429;49.826;10.880;2023-04-03T05:50:20;8.9;;;7.3;;
4325;SDS011;58429;49.826;10.880;2023-04-03T05:51:22;8.9;;;7.3;;
4325;SDS011;58429;49.826;10.880;2023-04-03T05:52:21;8.9;;;7.3;;
4325;SDS011;58429;49.826;10.880;2023-04-03T05:53:21;8.7;;;6.2;;
4325;SDS011;58429;49.826;10.880;2023-04-03T05:54:21;8.7;;;6.2;;
4325;SDS011;58429;49.826;10.880;2023-04-03T05:55:20;8.7;;;6.2;;
4325;SDS011;58429;49.826;10.880;2023-04-03T05:56:20;8.5;;;6.7;;
4325;SDS011;58429;49.826;10.880;2023-04-03T05:57:21;8.5;;;6.7;;
4325;SDS011;58429;49.826;10.880;2023-04-03T05:58:21;8.5;;;6.7;;
4325;SDS011;58429;49.826;10.880;2023-04-03T05:59:20;10.1;;;7.5;;
4325;SDS011;58429;49.826;10.880;2023-04-03T06:00:21;10.1;;;7.5;;
4325;SDS011;58429;49.826;10.880;2023-04-03T06:01:20;10.1;;;7.5;;
4325;SDS011;58429;49.826;10.880;2023-04-03T06:02:21;9;;;6.5;;
4325;SDS011;58429;49.826;10.880;2023-04-03T06:03:20;9;;;6.5;;
4325;SDS011;58429;49.826;10.880;2023-04-03T06:04:21;9;;;6.5;;
4325;SDS011;58429;49.826;10.880;2023-04-03T06:05:20;10.2;;;6.7;;
4325;SDS011;58429;49.826;10.880;2023-04-03T06:06:21;10.2;;;6.7;;
4325;SDS011;58429;49.826;10.880;2023-04-03T06:07:21;10.2;;;6.7;;
4325;SDS011;58429;49.826;10.880;2023-04-03T06:08:20;9.8;;;6.7;;
4325;SDS011;58429;49.826;10.880;2023-04-03T06:09:21;9.8;;;6.7;;
4325;SDS011;58429;49.826;10.880;2023-04-03T06:10:20;9.8;;;6.7;;
4325;SDS011;58429;49.826;10.880;2023-04-03T06:11:21;10.2;;;7.1;;
4325;SDS011;58429;49.826;10.880;2023-04-03T06:12:21;10.2;;;7.1;;
4325;SDS011;58429;49.826;10.880;2023-04-03T06:13:20;10.2;;;7.1;;
4325;SDS011;58429;49.826;10.880;2023-04-03T06:14:20;9.9;;;7.2;;
4325;SDS011;58429;49.826;10.880;2023-04-03T06:15:21;9.9;;;7.2;;
4325;SDS011;58429;49.826;10.880;2023-04-03T06:16:20;9.9;;;7.2;;